createdAt,value
2022-09-06T00:02:21.300Z,9.74
2022-09-06T00:04:49.443Z,9.85
2022-09-06T00:07:17.377Z,9.92
2022-09-06T00:09:46.725Z,9.89
2022-09-06T00:12:14.580Z,9.85
2022-09-06T00:14:42.534Z,9.73
2022-09-06T00:17:10.601Z,9.76
2022-09-06T00:19:38.480Z,9.69
2022-09-06T00:22:06.547Z,9.33
2022-09-06T00:24:34.396Z,9.57
2022-09-06T00:27:03.697Z,9.65
2022-09-06T00:29:31.753Z,9.56
2022-09-06T00:32:00.460Z,9.66
2022-09-06T00:34:29.129Z,9.64
2022-09-06T00:36:57.176Z,9.64
2022-09-06T00:39:25.201Z,9.61
2022-09-06T00:41:53.194Z,9.58
2022-09-06T00:44:22.785Z,9.54
2022-09-06T00:46:53.058Z,9.51
2022-09-06T00:49:25.755Z,9.44
2022-09-06T00:51:56.919Z,9.47
2022-09-06T00:54:25.141Z,9.21
2022-09-06T00:56:53.110Z,9.48
2022-09-06T00:59:23.190Z,9.48
2022-09-06T01:01:51.367Z,9.32
2022-09-06T01:04:19.698Z,9.24
2022-09-06T01:06:58.121Z,9.41
2022-09-06T01:09:37.639Z,9.37
2022-09-06T01:12:18.903Z,9.24
2022-09-06T01:15:06.191Z,9.34
2022-09-06T01:17:45.610Z,9.22
2022-09-06T01:20:32.561Z,9.29
2022-09-06T01:23:29.612Z,9.30
2022-09-06T01:26:11.638Z,9.22
2022-09-06T01:28:43.920Z,9.25
2022-09-06T01:31:26.000Z,9.24
2022-09-06T01:34:12.288Z,9.23
2022-09-06T01:37:08.585Z,8.94
2022-09-06T01:39:36.697Z,8.87
2022-09-06T01:42:09.172Z,9.18
2022-09-06T01:44:40.381Z,9.01
2022-09-06T01:47:17.302Z,9.06
2022-09-06T01:49:55.154Z,9.10
2022-09-06T01:52:33.584Z,9.05
2022-09-06T01:55:18.554Z,9.04
2022-09-06T01:58:08.439Z,9.04
2022-09-06T02:00:48.160Z,9.03
2022-09-06T02:03:24.487Z,9.04
2022-09-06T02:05:55.408Z,9.03
2022-09-06T02:08:28.879Z,8.91
2022-09-06T02:11:00.813Z,8.78
2022-09-06T02:13:34.465Z,8.98
2022-09-06T02:16:05.696Z,8.95
2022-09-06T02:18:39.522Z,8.47
2022-09-06T02:21:10.209Z,8.95
2022-09-06T02:23:41.550Z,8.92
2022-09-06T02:26:14.360Z,8.88
2022-09-06T02:28:42.655Z,8.88
2022-09-06T02:31:17.809Z,8.86
2022-09-06T02:33:47.379Z,8.55
2022-09-06T02:36:15.922Z,8.46
2022-09-06T02:38:45.661Z,8.85
2022-09-06T02:41:14.984Z,8.84
2022-09-06T02:43:43.916Z,8.82
2022-09-06T02:46:13.836Z,8.82
2022-09-06T02:48:42.137Z,8.78
2022-09-06T02:51:10.782Z,8.77
2022-09-06T02:53:38.908Z,8.78
2022-09-06T02:56:07.274Z,8.77
2022-09-06T02:58:35.556Z,8.78
2022-09-06T03:01:04.081Z,8.22
2022-09-06T03:03:33.577Z,8.80
2022-09-06T03:06:01.509Z,8.78
2022-09-06T03:08:33.609Z,8.76
2022-09-06T03:11:02.148Z,8.56
2022-09-06T03:13:30.789Z,8.72
2022-09-06T03:16:00.343Z,8.71
2022-09-06T03:18:31.033Z,8.57
2022-09-06T03:21:00.461Z,8.68
2022-09-06T03:23:30.215Z,8.27
2022-09-06T03:25:58.529Z,8.68
2022-09-06T03:28:27.046Z,8.72
2022-09-06T03:30:55.360Z,8.74
2022-09-06T03:33:23.945Z,8.75
2022-09-06T03:35:53.918Z,8.75
2022-09-06T03:38:24.923Z,8.74
2022-09-06T03:40:53.350Z,8.36
2022-09-06T03:43:23.189Z,8.73
2022-09-06T03:45:53.196Z,8.23
2022-09-06T03:48:23.390Z,8.75
2022-09-06T03:50:55.747Z,8.76
2022-09-06T03:53:27.272Z,8.78
2022-09-06T03:55:57.762Z,8.78
2022-09-06T03:58:30.046Z,8.52
2022-09-06T04:01:04.573Z,8.80
2022-09-06T04:03:33.147Z,8.81
2022-09-06T04:06:01.057Z,8.42
2022-09-06T04:08:30.777Z,8.73
2022-09-06T04:10:59.536Z,8.89
2022-09-06T04:13:28.762Z,8.92
2022-09-06T04:15:57.005Z,8.91
2022-09-06T04:18:25.058Z,8.93
2022-09-06T04:20:55.964Z,8.93
2022-09-06T04:23:24.973Z,8.94
2022-09-06T04:25:56.692Z,8.97
2022-09-06T04:28:26.796Z,9.02
2022-09-06T04:30:55.943Z,8.98
2022-09-06T04:33:26.210Z,9.12
2022-09-06T04:35:55.001Z,9.13
2022-09-06T04:38:23.049Z,9.17
2022-09-06T04:40:51.280Z,9.23
2022-09-06T04:43:20.793Z,9.29
2022-09-06T04:45:48.832Z,8.99
2022-09-06T04:48:17.274Z,9.39
2022-09-06T04:50:45.373Z,9.60
2022-09-06T04:53:13.260Z,9.70
2022-09-06T04:55:41.329Z,9.76
2022-09-06T04:58:09.430Z,9.82
2022-09-06T05:00:39.000Z,9.67
2022-09-06T05:03:06.998Z,9.90
2022-09-06T05:05:35.030Z,9.94
2022-09-06T05:08:03.129Z,9.56
2022-09-06T05:10:31.072Z,10.02
2022-09-06T05:12:59.021Z,10.05
2022-09-06T05:15:26.965Z,10.07
2022-09-06T05:18:03.933Z,10.14
2022-09-06T05:20:32.328Z,9.96
2022-09-06T05:23:01.645Z,9.98
2022-09-06T05:25:29.676Z,10.29
2022-09-06T05:27:57.590Z,10.39
2022-09-06T05:30:25.557Z,10.47
2022-09-06T05:32:53.489Z,10.55
2022-09-06T05:35:22.751Z,10.47
2022-09-06T05:37:50.692Z,10.58
2022-09-06T05:40:18.753Z,10.73
2022-09-06T05:42:46.685Z,10.96
2022-09-06T05:45:14.747Z,11.08
2022-09-06T05:47:42.757Z,11.24
2022-09-06T05:50:11.381Z,11.32
2022-09-06T05:52:40.816Z,11.60
2022-09-06T05:55:09.951Z,11.79
2022-09-06T05:57:37.833Z,11.92
2022-09-06T06:00:06.842Z,11.99
2022-09-06T06:02:34.842Z,11.91
2022-09-06T06:05:03.385Z,11.89
2022-09-06T06:07:31.412Z,11.98
2022-09-06T06:10:00.844Z,12.05
2022-09-06T06:12:28.785Z,12.11
2022-09-06T06:14:56.845Z,12.17
2022-09-06T06:17:24.999Z,12.24
2022-09-06T06:19:53.587Z,12.33
2022-09-06T06:22:21.620Z,12.40
2022-09-06T06:24:49.685Z,12.47
2022-09-06T06:27:21.658Z,12.05
2022-09-06T06:29:50.740Z,12.61
2022-09-06T06:32:18.596Z,12.68
2022-09-06T06:34:46.458Z,12.78
2022-09-06T06:37:14.487Z,12.88
2022-09-06T06:39:42.401Z,12.99
2022-09-06T06:42:10.474Z,13.06
2022-09-06T06:44:39.861Z,13.17
2022-09-06T06:47:07.909Z,13.25
2022-09-06T06:49:35.789Z,13.45
2022-09-06T06:52:04.356Z,13.55
2022-09-06T06:54:32.222Z,13.61
2022-09-06T06:57:00.242Z,13.94
2022-09-06T06:59:28.322Z,14.63
2022-09-06T07:01:58.816Z,15.08
2022-09-06T07:04:26.870Z,15.55
2022-09-06T07:12:34.040Z,16.15
2022-09-06T07:15:02.044Z,16.28
2022-09-06T07:17:31.283Z,16.38
2022-09-06T07:20:15.198Z,16.41
2022-09-06T07:22:43.795Z,16.92
2022-09-06T07:25:14.387Z,17.10
2022-09-06T07:30:20.314Z,17.69
2022-09-06T07:32:49.886Z,17.69
2022-09-06T07:35:20.500Z,17.52
2022-09-06T07:37:55.980Z,17.48
2022-09-06T07:40:24.573Z,16.89
2022-09-06T07:42:52.552Z,17.34
2022-09-06T07:45:20.845Z,17.68
2022-09-06T07:50:47.406Z,18.61
2022-09-06T07:53:24.538Z,18.62
2022-09-06T07:55:57.229Z,18.63
2022-09-06T07:58:25.301Z,18.66
2022-09-06T08:00:53.176Z,19.19
2022-09-06T08:03:22.767Z,19.18
2022-09-06T08:11:29.814Z,18.70
2022-09-06T08:14:00.060Z,18.52
2022-09-06T08:16:29.687Z,18.60
2022-09-06T08:19:01.293Z,18.92
2022-09-06T08:21:32.235Z,18.96
2022-09-06T08:24:01.907Z,19.14
2022-09-06T08:26:31.174Z,19.08
2022-09-06T08:29:01.398Z,19.23
2022-09-06T08:31:31.139Z,19.23
2022-09-06T08:34:01.929Z,18.93
2022-09-06T08:36:31.570Z,18.86
2022-09-06T08:38:59.991Z,18.87
2022-09-06T08:41:32.271Z,19.02
2022-09-06T08:46:59.220Z,19.01
2022-09-06T08:49:31.634Z,19.23
2022-09-06T08:52:20.304Z,19.56
2022-09-06T08:54:55.180Z,19.80
2022-09-06T08:57:40.272Z,20.03
2022-09-06T09:00:11.913Z,19.95
2022-09-06T09:02:46.109Z,20.15
2022-09-06T09:05:25.629Z,20.34
2022-09-06T09:08:07.605Z,20.32
2022-09-06T09:10:42.569Z,20.48
2022-09-06T09:13:21.380Z,20.54
2022-09-06T09:15:49.361Z,20.50
2022-09-06T09:18:23.931Z,20.88
2022-09-06T09:20:53.745Z,21.48
2022-09-06T09:23:21.614Z,21.06
2022-09-06T09:25:52.893Z,20.65
2022-09-06T09:28:23.832Z,20.92
2022-09-06T09:30:53.202Z,20.86
2022-09-06T09:33:28.102Z,20.87
2022-09-06T09:35:59.484Z,20.53
2022-09-06T09:38:29.075Z,21.36
2022-09-06T09:40:59.513Z,21.56
2022-09-06T09:43:31.344Z,21.36
2022-09-06T09:46:16.276Z,21.04
2022-09-06T09:49:00.234Z,20.67
2022-09-06T09:51:30.924Z,21.40
2022-09-06T09:54:00.183Z,21.67
2022-09-06T09:56:37.698Z,21.68
2022-09-06T09:59:16.618Z,21.77
2022-09-06T10:01:45.072Z,22.67
2022-09-06T10:07:13.244Z,21.94
2022-09-06T10:09:43.932Z,21.84
2022-09-06T10:12:18.718Z,21.77
2022-09-06T10:14:49.232Z,22.23
2022-09-06T10:17:23.461Z,22.25
2022-09-06T10:19:51.515Z,22.22
2022-09-06T10:22:31.449Z,22.29
2022-09-06T10:25:18.379Z,22.58
2022-09-06T10:28:15.952Z,22.25
2022-09-06T10:30:55.102Z,22.00
2022-09-06T10:33:33.514Z,22.29
2022-09-06T10:36:04.601Z,22.32
2022-09-06T10:38:49.625Z,23.06
2022-09-06T10:41:33.281Z,23.00
2022-09-06T10:44:18.368Z,22.64
2022-09-06T10:46:47.042Z,23.01
2022-09-06T10:49:19.181Z,22.96
2022-09-06T10:51:51.940Z,23.27
2022-09-06T10:54:23.474Z,23.31
2022-09-06T10:56:57.206Z,22.68
2022-09-06T10:59:38.199Z,22.01
2022-09-06T11:02:16.363Z,22.12
2022-09-06T11:07:42.059Z,22.41
2022-09-06T11:10:19.820Z,22.86
2022-09-06T11:12:55.472Z,23.03
2022-09-06T11:15:26.561Z,23.04
2022-09-06T11:18:02.429Z,23.57
2022-09-06T11:20:37.073Z,24.51
2022-09-06T11:23:41.703Z,24.81
2022-09-06T11:26:28.869Z,24.42
2022-09-06T11:28:59.333Z,24.52
2022-09-06T11:34:26.599Z,23.68
2022-09-06T11:36:57.406Z,23.68
2022-09-06T11:43:03.194Z,24.62
2022-09-06T11:45:43.906Z,24.60
2022-09-06T11:48:35.230Z,24.74
2022-09-06T11:51:07.863Z,24.81
2022-09-06T11:53:57.800Z,24.84
2022-09-06T11:56:32.163Z,24.90
2022-09-06T11:59:07.806Z,24.54
2022-09-06T12:01:41.110Z,24.36
2022-09-06T12:04:12.194Z,24.07
2022-09-06T12:06:43.142Z,24.03
2022-09-06T12:09:31.710Z,24.33
2022-09-06T12:12:00.481Z,25.08
2022-09-06T12:14:33.282Z,26.16
2022-09-06T12:17:28.812Z,26.57
2022-09-06T12:20:07.240Z,25.87
2022-09-06T12:22:59.149Z,25.38
2022-09-06T12:25:53.073Z,25.40
2022-09-06T12:28:32.790Z,25.95
2022-09-06T12:31:02.888Z,26.47
2022-09-06T12:33:33.628Z,26.70
2022-09-06T12:36:15.094Z,27.41
2022-09-06T12:38:55.817Z,27.40
2022-09-06T12:41:25.238Z,28.61
2022-09-06T12:43:55.823Z,28.86
2022-09-06T12:46:26.942Z,28.99
2022-09-06T12:49:06.938Z,30.06
2022-09-06T12:51:36.302Z,30.59
2022-09-06T12:54:06.941Z,30.98
2022-09-06T12:56:35.807Z,31.55
2022-09-06T12:59:17.143Z,30.86
2022-09-06T13:01:57.034Z,30.14
2022-09-06T13:04:33.825Z,30.03
2022-09-06T13:07:04.525Z,30.07
2022-09-06T13:09:33.328Z,30.24
2022-09-06T13:12:07.052Z,31.32
2022-09-06T13:14:36.217Z,31.93
2022-09-06T13:17:05.621Z,31.55
2022-09-06T13:19:35.893Z,30.74
2022-09-06T13:22:07.525Z,31.46
2022-09-06T13:24:47.440Z,31.61
2022-09-06T13:27:27.165Z,32.95
2022-09-06T13:29:59.506Z,32.09
2022-09-06T13:32:32.415Z,31.84
2022-09-06T13:35:01.272Z,30.95
2022-09-06T13:37:31.568Z,30.85
2022-09-06T13:39:59.936Z,31.74
2022-09-06T13:42:30.314Z,32.91
2022-09-06T13:45:02.000Z,33.26
2022-09-06T13:47:31.789Z,32.24
2022-09-06T13:50:00.409Z,31.91
2022-09-06T13:52:28.373Z,32.56
2022-09-06T13:54:56.460Z,33.27
2022-09-06T13:57:24.842Z,32.50
2022-09-06T13:59:52.771Z,31.52
2022-09-06T14:02:21.149Z,31.54
2022-09-06T14:04:50.828Z,32.44
2022-09-06T14:07:18.684Z,31.91
2022-09-06T14:09:47.706Z,30.41
2022-09-06T14:12:15.643Z,28.19
2022-09-06T14:14:44.637Z,27.77
2022-09-06T14:17:12.676Z,28.84
2022-09-06T14:19:41.461Z,29.55
2022-09-06T14:22:10.722Z,29.48
2022-09-06T14:24:38.804Z,28.53
2022-09-06T14:27:07.248Z,28.02
2022-09-06T14:29:35.746Z,27.55
2022-09-06T14:32:04.611Z,27.73
2022-09-06T14:34:32.730Z,29.17
2022-09-06T14:37:00.601Z,29.55
2022-09-06T14:39:30.173Z,28.58
2022-09-06T14:41:58.068Z,28.62
2022-09-06T14:44:26.060Z,29.24
2022-09-06T14:46:54.864Z,29.26
2022-09-06T14:49:22.825Z,30.16
2022-09-06T14:51:50.709Z,30.38
2022-09-06T14:54:20.309Z,30.46
2022-09-06T14:56:50.376Z,30.49
2022-09-06T14:59:18.409Z,30.10
2022-09-06T15:01:46.590Z,30.68
2022-09-06T15:04:14.550Z,30.20
2022-09-06T15:06:47.094Z,29.73
2022-09-06T15:09:15.667Z,29.90
2022-09-06T15:11:45.775Z,30.17
2022-09-06T15:14:17.122Z,30.23
2022-09-06T15:16:45.779Z,29.53
2022-09-06T15:19:13.908Z,29.27
2022-09-06T15:21:42.216Z,29.66
2022-09-06T15:24:12.255Z,28.86
2022-09-06T15:26:41.130Z,28.60
2022-09-06T15:29:09.929Z,28.40
2022-09-06T15:31:40.073Z,27.33
2022-09-06T15:34:09.039Z,26.69
2022-09-06T15:36:37.656Z,26.01
2022-09-06T15:39:06.706Z,25.23
2022-09-06T15:41:37.163Z,24.95
2022-09-06T15:44:09.798Z,24.61
2022-09-06T15:46:50.620Z,24.41
2022-09-06T15:49:24.377Z,23.93
2022-09-06T15:51:56.221Z,23.55
2022-09-06T15:54:45.341Z,23.31
2022-09-06T15:57:13.657Z,23.26
2022-09-06T15:59:42.017Z,23.01
2022-09-06T16:02:12.026Z,22.76
2022-09-06T16:04:40.316Z,22.53
2022-09-06T16:07:09.796Z,22.33
2022-09-06T16:09:37.735Z,22.30
2022-09-06T16:12:05.955Z,22.41
2022-09-06T16:14:34.904Z,22.28
2022-09-06T16:17:02.969Z,22.07
2022-09-06T16:19:32.360Z,21.97
2022-09-06T16:22:01.047Z,21.77
2022-09-06T16:24:29.312Z,21.57
2022-09-06T16:26:57.307Z,21.50
2022-09-06T16:29:25.350Z,21.30
2022-09-06T16:31:59.720Z,21.25
2022-09-06T16:34:27.992Z,21.19
2022-09-06T16:36:57.284Z,21.09
2022-09-06T16:39:25.448Z,20.94
2022-09-06T16:41:53.614Z,20.86
2022-09-06T16:44:21.609Z,20.56
2022-09-06T16:46:51.390Z,20.66
2022-09-06T16:49:19.809Z,20.60
2022-09-06T16:51:48.394Z,20.49
2022-09-06T16:54:19.111Z,20.42
2022-09-06T16:56:47.341Z,20.34
2022-09-06T16:59:17.362Z,20.05
2022-09-06T17:01:45.906Z,20.10
2022-09-06T17:04:14.355Z,20.07
2022-09-06T17:06:45.741Z,20.06
2022-09-06T17:09:15.713Z,19.97
2022-09-06T17:11:45.193Z,19.93
2022-09-06T17:14:13.137Z,19.80
2022-09-06T17:16:58.547Z,19.70
2022-09-06T17:19:26.854Z,19.72
2022-09-06T17:21:54.945Z,19.66
2022-09-06T17:24:23.105Z,19.35
2022-09-06T17:26:52.490Z,19.57
2022-09-06T17:29:20.545Z,19.49
2022-09-06T17:31:50.252Z,19.42
2022-09-06T17:34:18.356Z,19.39
2022-09-06T17:36:46.352Z,19.32
2022-09-06T17:39:17.704Z,19.22
2022-09-06T17:41:47.337Z,18.58
2022-09-06T17:44:20.060Z,19.05
2022-09-06T17:47:09.087Z,18.98
2022-09-06T17:49:37.034Z,18.59
2022-09-06T17:52:05.131Z,18.90
2022-09-06T17:54:33.522Z,18.84
2022-09-06T17:57:01.545Z,18.77
2022-09-06T17:59:35.037Z,18.71
2022-09-06T18:02:03.605Z,18.66
2022-09-06T18:04:31.646Z,18.60
2022-09-06T18:06:59.544Z,18.54
2022-09-06T18:09:27.715Z,18.48
2022-09-06T18:11:56.170Z,18.40
2022-09-06T18:14:24.017Z,18.35
2022-09-06T18:16:53.889Z,18.33
2022-09-06T18:19:23.228Z,18.25
2022-09-06T18:21:51.901Z,18.26
2022-09-06T18:24:20.130Z,18.25
2022-09-06T18:26:49.177Z,18.21
2022-09-06T18:29:18.530Z,18.18
2022-09-06T18:31:46.530Z,18.16
2022-09-06T18:34:16.723Z,18.08
2022-09-06T18:36:44.619Z,18.02
2022-09-06T18:39:13.323Z,18.07
2022-09-06T18:41:58.469Z,17.96
2022-09-06T18:44:31.418Z,18.02
2022-09-06T18:47:01.569Z,18.00
2022-09-06T18:49:32.637Z,17.96
2022-09-06T18:52:00.978Z,17.89
2022-09-06T18:54:29.001Z,17.83
2022-09-06T18:56:56.968Z,17.64
2022-09-06T18:59:25.249Z,17.81
2022-09-06T19:01:53.233Z,17.80
2022-09-06T19:04:21.552Z,17.23
2022-09-06T19:06:50.856Z,17.73
2022-09-06T19:09:19.112Z,17.42
2022-09-06T19:11:51.697Z,17.34
2022-09-06T19:14:19.966Z,17.34
2022-09-06T19:16:50.149Z,17.28
2022-09-06T19:19:18.515Z,17.19
2022-09-06T19:21:46.436Z,17.10
2022-09-06T19:24:16.295Z,17.04
2022-09-06T19:26:45.235Z,16.99
2022-09-06T19:29:15.699Z,16.94
2022-09-06T19:31:44.244Z,16.88
2022-09-06T19:34:13.739Z,16.82
2022-09-06T19:36:42.068Z,16.45
2022-09-06T19:39:13.257Z,16.71
2022-09-06T19:41:45.343Z,16.68
2022-09-06T19:44:14.793Z,16.64
2022-09-06T19:46:46.002Z,16.53
2022-09-06T19:49:15.252Z,16.48
2022-09-06T19:51:45.352Z,16.42
2022-09-06T19:54:15.609Z,16.23
2022-09-06T19:56:46.188Z,16.02
2022-09-06T19:59:15.316Z,16.26
2022-09-06T20:01:45.288Z,16.14
2022-09-06T20:04:14.974Z,16.11
2022-09-06T20:06:43.225Z,16.07
2022-09-06T20:09:12.289Z,16.03
2022-09-06T20:11:41.756Z,15.99
2022-09-06T20:14:11.885Z,15.85
2022-09-06T20:16:42.036Z,15.82
2022-09-06T20:19:12.112Z,15.72
2022-09-06T20:21:40.136Z,15.45
2022-09-06T20:24:08.317Z,15.63
2022-09-06T20:26:36.289Z,15.57
2022-09-06T20:29:06.731Z,15.57
2022-09-06T20:31:37.617Z,15.42
2022-09-06T20:34:06.888Z,15.44
2022-09-06T20:36:34.907Z,15.39
2022-09-06T20:39:03.583Z,15.35
2022-09-06T20:41:31.554Z,15.30
2022-09-06T20:44:00.991Z,15.18
2022-09-06T20:46:31.129Z,15.23
2022-09-06T20:49:04.398Z,15.21
2022-09-06T20:51:34.306Z,15.12
2022-09-06T20:54:03.611Z,15.18
2022-09-06T20:56:34.358Z,15.12
2022-09-06T20:59:04.221Z,15.00
2022-09-06T21:01:34.808Z,14.90
2022-09-06T21:04:07.219Z,14.79
2022-09-06T21:06:36.770Z,14.67
2022-09-06T21:09:05.312Z,14.67
2022-09-06T21:11:33.409Z,14.64
2022-09-06T21:14:01.446Z,14.61
2022-09-06T21:16:30.273Z,14.55
2022-09-06T21:18:59.693Z,14.45
2022-09-06T21:21:30.335Z,14.21
2022-09-06T21:23:58.257Z,14.33
2022-09-06T21:26:26.620Z,14.26
2022-09-06T21:28:55.115Z,14.17
2022-09-06T21:31:24.399Z,14.31
2022-09-06T21:33:53.821Z,14.29
2022-09-06T21:36:23.246Z,14.24
2022-09-06T21:38:55.604Z,14.20
2022-09-06T21:41:24.589Z,14.15
2022-09-06T21:43:53.701Z,13.99
2022-09-06T21:46:25.291Z,14.06
2022-09-06T21:48:56.095Z,14.10
2022-09-06T21:51:27.358Z,14.08
2022-09-06T21:53:58.027Z,14.05
2022-09-06T21:56:26.602Z,13.77
2022-09-06T21:58:56.513Z,13.97
2022-09-06T22:01:25.130Z,14.00
2022-09-06T22:03:53.150Z,13.98
2022-09-06T22:06:22.788Z,13.92
2022-09-06T22:08:51.076Z,13.88
2022-09-06T22:11:23.393Z,13.94
2022-09-06T22:13:51.971Z,13.85
2022-09-06T22:16:22.476Z,13.89
2022-09-06T22:18:51.650Z,13.48
2022-09-06T22:21:21.243Z,13.73
2022-09-06T22:23:53.020Z,13.76
2022-09-06T22:26:22.937Z,13.70
2022-09-06T22:28:55.347Z,13.41
2022-09-06T22:31:23.479Z,13.50
2022-09-06T22:33:51.588Z,13.71
2022-09-06T22:36:19.898Z,13.62
2022-09-06T22:38:48.383Z,13.50
2022-09-06T22:41:16.292Z,13.67
2022-09-06T22:43:45.733Z,13.57
2022-09-06T22:46:13.888Z,13.55
2022-09-06T22:48:41.848Z,13.50
2022-09-06T22:51:10.421Z,13.46
2022-09-06T22:53:38.386Z,12.61
2022-09-06T22:56:06.534Z,13.40
2022-09-06T22:58:35.493Z,13.36
2022-09-06T23:01:11.219Z,13.30
2022-09-06T23:03:39.783Z,13.28
2022-09-06T23:06:08.137Z,13.25
2022-09-06T23:08:37.186Z,13.17
2022-09-06T23:11:08.042Z,13.11
2022-09-06T23:13:36.186Z,13.08
2022-09-06T23:16:05.969Z,13.01
2022-09-06T23:18:35.807Z,13.01
2022-09-06T23:21:08.121Z,12.95
2022-09-06T23:23:39.195Z,12.86
2022-09-06T23:26:08.136Z,12.82
2022-09-06T23:28:36.902Z,12.83
2022-09-06T23:31:06.294Z,12.57
2022-09-06T23:33:37.469Z,12.54
2022-09-06T23:36:06.309Z,12.65
2022-09-06T23:38:34.782Z,12.54
2022-09-06T23:41:03.334Z,12.71
2022-09-06T23:43:31.550Z,12.73
2022-09-06T23:45:59.630Z,12.75
2022-09-06T23:48:27.997Z,12.75
2022-09-06T23:50:57.269Z,12.75
2022-09-06T23:53:25.261Z,12.75
2022-09-06T23:55:53.174Z,12.72
2022-09-06T23:58:21.414Z,12.61
